sensor_id;sensor_type;location;lat;lon;timestamp;P1;durP1;ratioP1;P2;durP2;ratioP2
70975;SDS011;58635;51.198;6.010;2023-08-24T00:01:28;8.25;;;4.22;;
70975;SDS011;58635;51.198;6.010;2023-08-24T00:03:54;6.20;;;4.22;;
70975;SDS011;58635;51.198;6.010;2023-08-24T00:06:20;6.25;;;4.57;;
70975;SDS011;58635;51.198;6.010;2023-08-24T00:08:47;8.20;;;4.07;;
70975;SDS011;58635;51.198;6.010;2023-08-24T00:11:13;9.40;;;4.50;;
70975;SDS011;58635;51.198;6.010;2023-08-24T00:13:44;8.48;;;4.90;;
70975;SDS011;58635;51.198;6.010;2023-08-24T00:16:15;8.05;;;4.05;;
70975;SDS011;58635;51.198;6.010;2023-08-24T00:18:42;7.97;;;4.78;;
70975;SDS011;58635;51.198;6.010;2023-08-24T00:21:08;7.53;;;4.43;;
70975;SDS011;58635;51.198;6.010;2023-08-24T00:23:35;5.50;;;4.03;;
70975;SDS011;58635;51.198;6.010;2023-08-24T00:26:01;7.15;;;4.18;;
70975;SDS011;58635;51.198;6.010;2023-08-24T00:28:27;8.90;;;4.60;;
70975;SDS011;58635;51.198;6.010;2023-08-24T00:30:54;10.70;;;4.50;;
70975;SDS011;58635;51.198;6.010;2023-08-24T00:33:20;6.68;;;4.07;;
70975;SDS011;58635;51.198;6.010;2023-08-24T00:35:46;8.52;;;4.38;;
70975;SDS011;58635;51.198;6.010;2023-08-24T00:38:13;7.50;;;3.92;;
70975;SDS011;58635;51.198;6.010;2023-08-24T00:40:41;8.48;;;4.85;;
70975;SDS011;58635;51.198;6.010;2023-08-24T00:43:09;7.05;;;4.60;;
70975;SDS011;58635;51.198;6.010;2023-08-24T00:45:36;7.47;;;4.45;;
70975;SDS011;58635;51.198;6.010;2023-08-24T00:48:03;8.70;;;4.60;;
70975;SDS011;58635;51.198;6.010;2023-08-24T00:50:29;8.43;;;4.85;;
70975;SDS011;58635;51.198;6.010;2023-08-24T00:52:56;8.25;;;4.65;;
70975;SDS011;58635;51.198;6.010;2023-08-24T00:55:22;8.23;;;4.88;;
70975;SDS011;58635;51.198;6.010;2023-08-24T00:57:49;8.15;;;4.60;;
70975;SDS011;58635;51.198;6.010;2023-08-24T01:00:16;7.85;;;4.47;;
70975;SDS011;58635;51.198;6.010;2023-08-24T01:02:43;13.63;;;5.05;;
70975;SDS011;58635;51.198;6.010;2023-08-24T01:05:09;9.85;;;4.93;;
70975;SDS011;58635;51.198;6.010;2023-08-24T01:07:37;11.38;;;4.75;;
70975;SDS011;58635;51.198;6.010;2023-08-24T01:10:05;7.70;;;4.35;;
70975;SDS011;58635;51.198;6.010;2023-08-24T01:12:44;12.32;;;4.80;;
70975;SDS011;58635;51.198;6.010;2023-08-24T01:18:05;7.90;;;4.65;;
70975;SDS011;58635;51.198;6.010;2023-08-24T01:20:37;8.60;;;4.65;;
70975;SDS011;58635;51.198;6.010;2023-08-24T01:23:27;8.40;;;4.40;;
70975;SDS011;58635;51.198;6.010;2023-08-24T01:26:04;7.07;;;4.50;;
70975;SDS011;58635;51.198;6.010;2023-08-24T01:28:43;7.75;;;4.72;;
70975;SDS011;58635;51.198;6.010;2023-08-24T01:31:11;7.25;;;5.07;;
70975;SDS011;58635;51.198;6.010;2023-08-24T01:33:43;8.23;;;4.20;;
70975;SDS011;58635;51.198;6.010;2023-08-24T01:36:11;7.43;;;4.55;;
70975;SDS011;58635;51.198;6.010;2023-08-24T01:38:39;9.27;;;5.20;;
70975;SDS011;58635;51.198;6.010;2023-08-24T01:41:09;7.88;;;5.22;;
70975;SDS011;58635;51.198;6.010;2023-08-24T01:43:43;11.93;;;5.20;;
70975;SDS011;58635;51.198;6.010;2023-08-24T01:46:13;7.30;;;4.88;;
70975;SDS011;58635;51.198;6.010;2023-08-24T01:48:41;7.40;;;4.88;;
70975;SDS011;58635;51.198;6.010;2023-08-24T01:51:08;10.07;;;5.25;;
70975;SDS011;58635;51.198;6.010;2023-08-24T01:53:36;7.75;;;4.78;;
70975;SDS011;58635;51.198;6.010;2023-08-24T01:56:08;12.98;;;5.75;;
70975;SDS011;58635;51.198;6.010;2023-08-24T01:58:41;9.20;;;5.32;;
70975;SDS011;58635;51.198;6.010;2023-08-24T02:01:08;8.63;;;5.68;;
70975;SDS011;58635;51.198;6.010;2023-08-24T02:03:35;12.10;;;5.53;;
70975;SDS011;58635;51.198;6.010;2023-08-24T02:06:01;8.57;;;5.45;;
70975;SDS011;58635;51.198;6.010;2023-08-24T02:08:28;8.43;;;5.07;;
70975;SDS011;58635;51.198;6.010;2023-08-24T02:10:54;7.20;;;4.85;;
70975;SDS011;58635;51.198;6.010;2023-08-24T02:13:21;7.68;;;4.93;;
70975;SDS011;58635;51.198;6.010;2023-08-24T02:15:47;8.70;;;5.05;;
70975;SDS011;58635;51.198;6.010;2023-08-24T02:18:14;8.07;;;4.68;;
70975;SDS011;58635;51.198;6.010;2023-08-24T02:20:40;9.25;;;5.63;;
70975;SDS011;58635;51.198;6.010;2023-08-24T02:23:06;9.38;;;5.03;;
70975;SDS011;58635;51.198;6.010;2023-08-24T02:25:33;12.38;;;5.65;;
70975;SDS011;58635;51.198;6.010;2023-08-24T02:27:59;8.60;;;5.43;;
70975;SDS011;58635;51.198;6.010;2023-08-24T02:30:25;7.53;;;5.20;;
70975;SDS011;58635;51.198;6.010;2023-08-24T02:32:52;9.55;;;6.03;;
70975;SDS011;58635;51.198;6.010;2023-08-24T02:35:18;9.70;;;5.57;;
70975;SDS011;58635;51.198;6.010;2023-08-24T02:37:45;8.07;;;5.35;;
70975;SDS011;58635;51.198;6.010;2023-08-24T02:40:11;7.78;;;5.80;;
70975;SDS011;58635;51.198;6.010;2023-08-24T02:42:37;9.93;;;5.60;;
70975;SDS011;58635;51.198;6.010;2023-08-24T02:45:04;13.75;;;6.20;;
70975;SDS011;58635;51.198;6.010;2023-08-24T02:47:30;9.73;;;5.95;;
70975;SDS011;58635;51.198;6.010;2023-08-24T02:49:57;12.18;;;6.00;;
70975;SDS011;58635;51.198;6.010;2023-08-24T02:52:23;11.88;;;6.65;;
70975;SDS011;58635;51.198;6.010;2023-08-24T02:54:50;10.07;;;6.38;;
70975;SDS011;58635;51.198;6.010;2023-08-24T02:57:16;13.98;;;6.90;;
70975;SDS011;58635;51.198;6.010;2023-08-24T02:59:43;10.07;;;6.68;;
70975;SDS011;58635;51.198;6.010;2023-08-24T03:02:10;9.95;;;6.40;;
70975;SDS011;58635;51.198;6.010;2023-08-24T03:04:36;9.90;;;6.28;;
70975;SDS011;58635;51.198;6.010;2023-08-24T03:07:03;10.10;;;6.72;;
70975;SDS011;58635;51.198;6.010;2023-08-24T03:09:29;10.25;;;6.25;;
70975;SDS011;58635;51.198;6.010;2023-08-24T03:11:55;8.85;;;6.32;;
70975;SDS011;58635;51.198;6.010;2023-08-24T03:14:22;9.48;;;6.43;;
70975;SDS011;58635;51.198;6.010;2023-08-24T03:16:48;11.45;;;6.50;;
70975;SDS011;58635;51.198;6.010;2023-08-24T03:19:14;10.60;;;6.43;;
70975;SDS011;58635;51.198;6.010;2023-08-24T03:21:44;11.43;;;7.25;;
70975;SDS011;58635;51.198;6.010;2023-08-24T03:24:10;10.18;;;7.63;;
70975;SDS011;58635;51.198;6.010;2023-08-24T03:26:37;8.93;;;7.25;;
70975;SDS011;58635;51.198;6.010;2023-08-24T03:29:03;9.45;;;6.43;;
70975;SDS011;58635;51.198;6.010;2023-08-24T03:31:30;9.20;;;6.68;;
70975;SDS011;58635;51.198;6.010;2023-08-24T03:33:56;9.18;;;6.43;;
70975;SDS011;58635;51.198;6.010;2023-08-24T03:36:22;9.85;;;6.82;;
70975;SDS011;58635;51.198;6.010;2023-08-24T03:38:49;10.23;;;6.78;;
70975;SDS011;58635;51.198;6.010;2023-08-24T03:41:15;8.73;;;7.13;;
70975;SDS011;58635;51.198;6.010;2023-08-24T03:43:41;11.45;;;7.57;;
70975;SDS011;58635;51.198;6.010;2023-08-24T03:46:08;10.98;;;7.28;;
70975;SDS011;58635;51.198;6.010;2023-08-24T03:48:34;12.73;;;8.18;;
70975;SDS011;58635;51.198;6.010;2023-08-24T03:51:01;13.35;;;8.20;;
70975;SDS011;58635;51.198;6.010;2023-08-24T03:53:27;9.35;;;7.55;;
70975;SDS011;58635;51.198;6.010;2023-08-24T03:55:54;11.85;;;7.55;;
70975;SDS011;58635;51.198;6.010;2023-08-24T03:58:20;13.02;;;8.50;;
70975;SDS011;58635;51.198;6.010;2023-08-24T04:00:47;10.20;;;7.43;;
70975;SDS011;58635;51.198;6.010;2023-08-24T04:03:13;13.75;;;7.90;;
70975;SDS011;58635;51.198;6.010;2023-08-24T04:05:39;12.50;;;8.45;;
70975;SDS011;58635;51.198;6.010;2023-08-24T04:08:06;12.77;;;8.07;;
70975;SDS011;58635;51.198;6.010;2023-08-24T04:10:33;12.18;;;7.82;;
70975;SDS011;58635;51.198;6.010;2023-08-24T04:12:59;11.65;;;8.15;;
70975;SDS011;58635;51.198;6.010;2023-08-24T04:15:26;10.93;;;7.80;;
70975;SDS011;58635;51.198;6.010;2023-08-24T04:17:52;11.55;;;8.00;;
70975;SDS011;58635;51.198;6.010;2023-08-24T04:20:18;11.45;;;7.43;;
70975;SDS011;58635;51.198;6.010;2023-08-24T04:22:45;11.88;;;7.38;;
70975;SDS011;58635;51.198;6.010;2023-08-24T04:25:11;10.80;;;6.80;;
70975;SDS011;58635;51.198;6.010;2023-08-24T04:27:37;10.52;;;7.68;;
70975;SDS011;58635;51.198;6.010;2023-08-24T04:30:04;9.15;;;7.00;;
70975;SDS011;58635;51.198;6.010;2023-08-24T04:32:31;9.88;;;6.90;;
70975;SDS011;58635;51.198;6.010;2023-08-24T04:34:58;10.52;;;7.35;;
70975;SDS011;58635;51.198;6.010;2023-08-24T04:37:25;10.38;;;7.63;;
70975;SDS011;58635;51.198;6.010;2023-08-24T04:39:51;12.05;;;7.07;;
70975;SDS011;58635;51.198;6.010;2023-08-24T04:42:17;8.40;;;5.60;;
70975;SDS011;58635;51.198;6.010;2023-08-24T04:44:44;12.68;;;7.38;;
70975;SDS011;58635;51.198;6.010;2023-08-24T04:47:10;9.13;;;6.68;;
70975;SDS011;58635;51.198;6.010;2023-08-24T04:49:36;9.77;;;6.60;;
70975;SDS011;58635;51.198;6.010;2023-08-24T04:52:03;11.38;;;6.68;;
70975;SDS011;58635;51.198;6.010;2023-08-24T04:54:30;9.20;;;6.32;;
70975;SDS011;58635;51.198;6.010;2023-08-24T04:56:58;11.18;;;6.13;;
70975;SDS011;58635;51.198;6.010;2023-08-24T04:59:24;9.00;;;6.28;;
70975;SDS011;58635;51.198;6.010;2023-08-24T05:01:51;13.73;;;7.38;;
70975;SDS011;58635;51.198;6.010;2023-08-24T05:04:17;12.13;;;7.78;;
70975;SDS011;58635;51.198;6.010;2023-08-24T05:06:44;11.40;;;8.00;;
70975;SDS011;58635;51.198;6.010;2023-08-24T05:09:10;11.18;;;7.55;;
70975;SDS011;58635;51.198;6.010;2023-08-24T05:11:36;11.18;;;7.50;;
70975;SDS011;58635;51.198;6.010;2023-08-24T05:14:03;11.98;;;7.40;;
70975;SDS011;58635;51.198;6.010;2023-08-24T05:16:29;13.50;;;7.90;;
70975;SDS011;58635;51.198;6.010;2023-08-24T05:18:56;12.95;;;8.27;;
70975;SDS011;58635;51.198;6.010;2023-08-24T05:21:22;14.98;;;7.95;;
70975;SDS011;58635;51.198;6.010;2023-08-24T05:23:48;12.45;;;7.85;;
70975;SDS011;58635;51.198;6.010;2023-08-24T05:26:15;10.98;;;7.05;;
70975;SDS011;58635;51.198;6.010;2023-08-24T05:28:48;13.05;;;8.07;;
70975;SDS011;58635;51.198;6.010;2023-08-24T05:31:14;17.27;;;7.75;;
70975;SDS011;58635;51.198;6.010;2023-08-24T05:33:41;13.02;;;6.90;;
70975;SDS011;58635;51.198;6.010;2023-08-24T05:36:07;10.98;;;6.60;;
70975;SDS011;58635;51.198;6.010;2023-08-24T05:38:33;10.90;;;6.82;;
70975;SDS011;58635;51.198;6.010;2023-08-24T05:41:00;12.90;;;7.13;;
70975;SDS011;58635;51.198;6.010;2023-08-24T05:43:26;13.00;;;7.10;;
70975;SDS011;58635;51.198;6.010;2023-08-24T05:45:52;9.40;;;6.05;;
70975;SDS011;58635;51.198;6.010;2023-08-24T05:48:19;14.38;;;7.15;;
70975;SDS011;58635;51.198;6.010;2023-08-24T05:50:45;12.90;;;7.32;;
70975;SDS011;58635;51.198;6.010;2023-08-24T05:53:13;13.43;;;6.75;;
70975;SDS011;58635;51.198;6.010;2023-08-24T05:55:39;12.38;;;7.53;;
70975;SDS011;58635;51.198;6.010;2023-08-24T05:58:06;17.88;;;8.85;;
70975;SDS011;58635;51.198;6.010;2023-08-24T06:00:32;12.02;;;7.57;;
70975;SDS011;58635;51.198;6.010;2023-08-24T06:02:59;15.48;;;8.15;;
70975;SDS011;58635;51.198;6.010;2023-08-24T06:05:25;14.73;;;9.10;;
70975;SDS011;58635;51.198;6.010;2023-08-24T06:07:52;14.65;;;8.00;;
70975;SDS011;58635;51.198;6.010;2023-08-24T06:10:19;15.95;;;8.30;;
70975;SDS011;58635;51.198;6.010;2023-08-24T06:12:45;14.95;;;7.90;;
70975;SDS011;58635;51.198;6.010;2023-08-24T06:15:11;13.70;;;8.18;;
70975;SDS011;58635;51.198;6.010;2023-08-24T06:17:39;14.40;;;7.40;;
70975;SDS011;58635;51.198;6.010;2023-08-24T06:20:06;13.45;;;7.38;;
70975;SDS011;58635;51.198;6.010;2023-08-24T06:22:36;13.50;;;7.32;;
70975;SDS011;58635;51.198;6.010;2023-08-24T06:25:03;12.98;;;6.57;;
70975;SDS011;58635;51.198;6.010;2023-08-24T06:27:31;12.70;;;6.45;;
70975;SDS011;58635;51.198;6.010;2023-08-24T06:29:57;10.63;;;5.47;;
70975;SDS011;58635;51.198;6.010;2023-08-24T06:32:23;10.30;;;5.13;;
70975;SDS011;58635;51.198;6.010;2023-08-24T06:34:50;10.32;;;4.72;;
70975;SDS011;58635;51.198;6.010;2023-08-24T06:37:16;10.43;;;5.00;;
70975;SDS011;58635;51.198;6.010;2023-08-24T06:39:42;7.80;;;4.20;;
70975;SDS011;58635;51.198;6.010;2023-08-24T06:42:09;9.65;;;4.28;;
70975;SDS011;58635;51.198;6.010;2023-08-24T06:44:35;9.43;;;4.55;;
70975;SDS011;58635;51.198;6.010;2023-08-24T06:47:02;11.02;;;4.72;;
70975;SDS011;58635;51.198;6.010;2023-08-24T06:49:29;9.77;;;4.90;;
70975;SDS011;58635;51.198;6.010;2023-08-24T06:51:55;10.35;;;4.60;;
70975;SDS011;58635;51.198;6.010;2023-08-24T06:54:21;9.43;;;4.03;;
70975;SDS011;58635;51.198;6.010;2023-08-24T06:56:49;8.35;;;3.92;;
70975;SDS011;58635;51.198;6.010;2023-08-24T06:59:15;8.20;;;3.95;;
70975;SDS011;58635;51.198;6.010;2023-08-24T07:01:41;9.52;;;4.03;;
70975;SDS011;58635;51.198;6.010;2023-08-24T07:04:08;10.13;;;4.32;;
70975;SDS011;58635;51.198;6.010;2023-08-24T07:06:34;7.53;;;3.80;;
70975;SDS011;58635;51.198;6.010;2023-08-24T07:09:00;8.52;;;3.65;;
70975;SDS011;58635;51.198;6.010;2023-08-24T07:11:29;5.47;;;3.17;;
70975;SDS011;58635;51.198;6.010;2023-08-24T07:13:55;8.18;;;3.35;;
70975;SDS011;58635;51.198;6.010;2023-08-24T07:16:21;5.40;;;3.22;;
70975;SDS011;58635;51.198;6.010;2023-08-24T07:18:48;10.13;;;3.97;;
70975;SDS011;58635;51.198;6.010;2023-08-24T07:21:14;6.45;;;3.38;;
70975;SDS011;58635;51.198;6.010;2023-08-24T07:23:41;7.53;;;3.72;;
70975;SDS011;58635;51.198;6.010;2023-08-24T07:26:07;7.75;;;3.45;;
70975;SDS011;58635;51.198;6.010;2023-08-24T07:28:34;6.72;;;3.30;;
70975;SDS011;58635;51.198;6.010;2023-08-24T07:31:10;13.82;;;5.90;;
70975;SDS011;58635;51.198;6.010;2023-08-24T07:33:37;9.75;;;4.38;;
70975;SDS011;58635;51.198;6.010;2023-08-24T07:36:06;6.90;;;3.63;;
70975;SDS011;58635;51.198;6.010;2023-08-24T07:38:33;7.43;;;3.42;;
70975;SDS011;58635;51.198;6.010;2023-08-24T07:40:59;9.02;;;3.67;;
70975;SDS011;58635;51.198;6.010;2023-08-24T07:43:25;6.78;;;3.42;;
70975;SDS011;58635;51.198;6.010;2023-08-24T07:45:52;10.05;;;3.60;;
70975;SDS011;58635;51.198;6.010;2023-08-24T07:48:18;8.95;;;3.30;;
70975;SDS011;58635;51.198;6.010;2023-08-24T07:50:45;8.23;;;3.30;;
70975;SDS011;58635;51.198;6.010;2023-08-24T07:53:11;7.13;;;3.92;;
70975;SDS011;58635;51.198;6.010;2023-08-24T07:55:37;9.25;;;3.95;;
70975;SDS011;58635;51.198;6.010;2023-08-24T07:58:04;7.70;;;3.38;;
70975;SDS011;58635;51.198;6.010;2023-08-24T08:00:30;6.10;;;3.17;;
70975;SDS011;58635;51.198;6.010;2023-08-24T08:02:57;6.97;;;3.00;;
70975;SDS011;58635;51.198;6.010;2023-08-24T08:05:23;5.60;;;3.38;;
70975;SDS011;58635;51.198;6.010;2023-08-24T08:07:49;7.18;;;3.20;;
70975;SDS011;58635;51.198;6.010;2023-08-24T08:10:16;5.88;;;3.00;;
70975;SDS011;58635;51.198;6.010;2023-08-24T08:12:43;5.60;;;2.92;;
70975;SDS011;58635;51.198;6.010;2023-08-24T08:15:09;5.78;;;2.70;;
70975;SDS011;58635;51.198;6.010;2023-08-24T08:17:36;6.00;;;2.90;;
70975;SDS011;58635;51.198;6.010;2023-08-24T08:20:02;6.35;;;2.85;;
70975;SDS011;58635;51.198;6.010;2023-08-24T08:22:29;6.97;;;3.40;;
70975;SDS011;58635;51.198;6.010;2023-08-24T08:24:56;6.18;;;3.08;;
70975;SDS011;58635;51.198;6.010;2023-08-24T08:27:22;6.25;;;2.83;;
70975;SDS011;58635;51.198;6.010;2023-08-24T08:29:50;4.22;;;2.63;;
70975;SDS011;58635;51.198;6.010;2023-08-24T08:32:16;5.00;;;2.80;;
70975;SDS011;58635;51.198;6.010;2023-08-24T08:34:43;5.95;;;2.80;;
70975;SDS011;58635;51.198;6.010;2023-08-24T08:37:09;6.45;;;3.10;;
70975;SDS011;58635;51.198;6.010;2023-08-24T08:39:35;5.85;;;3.00;;
70975;SDS011;58635;51.198;6.010;2023-08-24T08:42:02;5.68;;;2.95;;
70975;SDS011;58635;51.198;6.010;2023-08-24T08:44:31;5.53;;;2.60;;
70975;SDS011;58635;51.198;6.010;2023-08-24T08:46:59;5.47;;;2.90;;
70975;SDS011;58635;51.198;6.010;2023-08-24T08:49:25;5.90;;;2.90;;
70975;SDS011;58635;51.198;6.010;2023-08-24T08:51:52;5.05;;;2.83;;
70975;SDS011;58635;51.198;6.010;2023-08-24T08:54:18;5.10;;;2.80;;
70975;SDS011;58635;51.198;6.010;2023-08-24T08:56:45;6.13;;;2.88;;
70975;SDS011;58635;51.198;6.010;2023-08-24T08:59:11;6.47;;;3.08;;
70975;SDS011;58635;51.198;6.010;2023-08-24T09:01:41;4.75;;;2.85;;
70975;SDS011;58635;51.198;6.010;2023-08-24T09:04:11;5.28;;;2.70;;
70975;SDS011;58635;51.198;6.010;2023-08-24T09:06:38;7.47;;;2.88;;
70975;SDS011;58635;51.198;6.010;2023-08-24T09:09:04;5.85;;;2.83;;
70975;SDS011;58635;51.198;6.010;2023-08-24T09:11:31;7.07;;;2.97;;
70975;SDS011;58635;51.198;6.010;2023-08-24T09:13:57;9.27;;;3.55;;
70975;SDS011;58635;51.198;6.010;2023-08-24T09:16:23;5.13;;;2.97;;
70975;SDS011;58635;51.198;6.010;2023-08-24T09:18:55;6.53;;;2.90;;
70975;SDS011;58635;51.198;6.010;2023-08-24T09:21:22;6.28;;;3.08;;
70975;SDS011;58635;51.198;6.010;2023-08-24T09:23:53;5.10;;;2.65;;
70975;SDS011;58635;51.198;6.010;2023-08-24T09:26:30;7.03;;;2.80;;
70975;SDS011;58635;51.198;6.010;2023-08-24T09:28:59;4.70;;;2.60;;
70975;SDS011;58635;51.198;6.010;2023-08-24T09:31:34;4.78;;;2.70;;
70975;SDS011;58635;51.198;6.010;2023-08-24T09:34:03;3.67;;;2.35;;
70975;SDS011;58635;51.198;6.010;2023-08-24T09:36:33;5.35;;;2.78;;
70975;SDS011;58635;51.198;6.010;2023-08-24T09:39:00;7.07;;;3.03;;
70975;SDS011;58635;51.198;6.010;2023-08-24T09:41:40;5.13;;;2.85;;
70975;SDS011;58635;51.198;6.010;2023-08-24T09:44:08;6.15;;;2.95;;
70975;SDS011;58635;51.198;6.010;2023-08-24T09:46:35;6.15;;;3.10;;
70975;SDS011;58635;51.198;6.010;2023-08-24T09:49:05;4.93;;;2.80;;
70975;SDS011;58635;51.198;6.010;2023-08-24T09:51:35;6.40;;;3.30;;
70975;SDS011;58635;51.198;6.010;2023-08-24T09:54:07;6.45;;;2.75;;
70975;SDS011;58635;51.198;6.010;2023-08-24T09:56:36;5.63;;;3.17;;
70975;SDS011;58635;51.198;6.010;2023-08-24T09:59:14;6.85;;;3.17;;
70975;SDS011;58635;51.198;6.010;2023-08-24T10:01:45;5.45;;;2.97;;
70975;SDS011;58635;51.198;6.010;2023-08-24T10:04:22;6.40;;;2.85;;
70975;SDS011;58635;51.198;6.010;2023-08-24T10:09:36;6.53;;;3.00;;
70975;SDS011;58635;51.198;6.010;2023-08-24T10:12:06;5.65;;;2.95;;
70975;SDS011;58635;51.198;6.010;2023-08-24T10:17:05;6.40;;;3.00;;
70975;SDS011;58635;51.198;6.010;2023-08-24T10:19:33;5.75;;;2.75;;
70975;SDS011;58635;51.198;6.010;2023-08-24T10:22:02;7.45;;;3.00;;
70975;SDS011;58635;51.198;6.010;2023-08-24T10:24:29;5.05;;;2.85;;
70975;SDS011;58635;51.198;6.010;2023-08-24T10:26:57;7.78;;;3.08;;
70975;SDS011;58635;51.198;6.010;2023-08-24T10:29:25;8.43;;;2.92;;
70975;SDS011;58635;51.198;6.010;2023-08-24T10:31:52;9.98;;;3.05;;
70975;SDS011;58635;51.198;6.010;2023-08-24T10:34:18;6.78;;;2.80;;
70975;SDS011;58635;51.198;6.010;2023-08-24T10:36:47;6.28;;;3.03;;
70975;SDS011;58635;51.198;6.010;2023-08-24T10:39:15;6.60;;;3.50;;
70975;SDS011;58635;51.198;6.010;2023-08-24T10:41:48;9.45;;;3.75;;
70975;SDS011;58635;51.198;6.010;2023-08-24T10:47:07;6.68;;;3.10;;
70975;SDS011;58635;51.198;6.010;2023-08-24T10:49:36;6.40;;;3.00;;
70975;SDS011;58635;51.198;6.010;2023-08-24T10:52:20;6.40;;;3.40;;
70975;SDS011;58635;51.198;6.010;2023-08-24T10:54:51;6.07;;;3.03;;
70975;SDS011;58635;51.198;6.010;2023-08-24T10:57:21;6.90;;;2.88;;
70975;SDS011;58635;51.198;6.010;2023-08-24T11:00:05;6.40;;;3.42;;
70975;SDS011;58635;51.198;6.010;2023-08-24T11:02:46;6.18;;;3.53;;
70975;SDS011;58635;51.198;6.010;2023-08-24T11:07:51;7.65;;;3.33;;
70975;SDS011;58635;51.198;6.010;2023-08-24T11:10:23;7.32;;;3.17;;
70975;SDS011;58635;51.198;6.010;2023-08-24T11:15:30;7.03;;;4.07;;
70975;SDS011;58635;51.198;6.010;2023-08-24T11:20:47;6.10;;;3.00;;
70975;SDS011;58635;51.198;6.010;2023-08-24T11:23:15;7.50;;;3.08;;
70975;SDS011;58635;51.198;6.010;2023-08-24T11:25:42;7.38;;;3.35;;
70975;SDS011;58635;51.198;6.010;2023-08-24T11:28:09;7.05;;;3.10;;
70975;SDS011;58635;51.198;6.010;2023-08-24T11:30:35;7.18;;;3.20;;
70975;SDS011;58635;51.198;6.010;2023-08-24T11:33:02;8.23;;;2.90;;
70975;SDS011;58635;51.198;6.010;2023-08-24T11:35:29;7.13;;;3.28;;
70975;SDS011;58635;51.198;6.010;2023-08-24T11:38:01;6.75;;;2.95;;
70975;SDS011;58635;51.198;6.010;2023-08-24T11:40:28;7.28;;;3.28;;
70975;SDS011;58635;51.198;6.010;2023-08-24T11:42:57;6.57;;;3.33;;
70975;SDS011;58635;51.198;6.010;2023-08-24T11:45:24;6.90;;;3.17;;
70975;SDS011;58635;51.198;6.010;2023-08-24T11:47:57;9.70;;;3.88;;
70975;SDS011;58635;51.198;6.010;2023-08-24T11:50:26;8.32;;;3.40;;
70975;SDS011;58635;51.198;6.010;2023-08-24T11:52:52;8.90;;;3.70;;
70975;SDS011;58635;51.198;6.010;2023-08-24T11:55:21;7.93;;;3.45;;
70975;SDS011;58635;51.198;6.010;2023-08-24T11:57:48;5.82;;;3.70;;
70975;SDS011;58635;51.198;6.010;2023-08-24T12:00:15;6.53;;;3.40;;
70975;SDS011;58635;51.198;6.010;2023-08-24T12:02:42;7.32;;;3.33;;
70975;SDS011;58635;51.198;6.010;2023-08-24T12:05:22;8.88;;;3.85;;
70975;SDS011;58635;51.198;6.010;2023-08-24T12:07:53;7.20;;;3.83;;
70975;SDS011;58635;51.198;6.010;2023-08-24T12:10:20;9.45;;;3.30;;
70975;SDS011;58635;51.198;6.010;2023-08-24T12:12:47;8.13;;;3.60;;
70975;SDS011;58635;51.198;6.010;2023-08-24T12:15:15;6.78;;;3.35;;
70975;SDS011;58635;51.198;6.010;2023-08-24T12:17:43;6.95;;;3.10;;
70975;SDS011;58635;51.198;6.010;2023-08-24T12:20:20;7.35;;;3.60;;
70975;SDS011;58635;51.198;6.010;2023-08-24T12:22:51;8.85;;;3.40;;
70975;SDS011;58635;51.198;6.010;2023-08-24T12:25:21;8.18;;;3.90;;
70975;SDS011;58635;51.198;6.010;2023-08-24T12:27:48;6.38;;;3.53;;
70975;SDS011;58635;51.198;6.010;2023-08-24T12:30:16;7.90;;;3.22;;
70975;SDS011;58635;51.198;6.010;2023-08-24T12:32:44;7.22;;;3.63;;
70975;SDS011;58635;51.198;6.010;2023-08-24T12:35:11;9.05;;;4.00;;
70975;SDS011;58635;51.198;6.010;2023-08-24T12:37:40;6.82;;;3.20;;
70975;SDS011;58635;51.198;6.010;2023-08-24T12:40:07;6.93;;;3.20;;
70975;SDS011;58635;51.198;6.010;2023-08-24T12:42:34;5.72;;;3.10;;
70975;SDS011;58635;51.198;6.010;2023-08-24T12:45:00;6.90;;;3.05;;
70975;SDS011;58635;51.198;6.010;2023-08-24T12:47:27;9.18;;;3.60;;
70975;SDS011;58635;51.198;6.010;2023-08-24T12:49:53;7.18;;;3.95;;
70975;SDS011;58635;51.198;6.010;2023-08-24T12:52:22;7.32;;;3.63;;
70975;SDS011;58635;51.198;6.010;2023-08-24T12:54:49;8.02;;;3.50;;
70975;SDS011;58635;51.198;6.010;2023-08-24T12:57:16;8.18;;;4.00;;
70975;SDS011;58635;51.198;6.010;2023-08-24T12:59:42;6.55;;;3.70;;
70975;SDS011;58635;51.198;6.010;2023-08-24T13:02:08;6.78;;;4.10;;
70975;SDS011;58635;51.198;6.010;2023-08-24T13:04:35;8.45;;;3.78;;
70975;SDS011;58635;51.198;6.010;2023-08-24T13:07:01;9.25;;;4.20;;
70975;SDS011;58635;51.198;6.010;2023-08-24T13:09:28;8.73;;;4.22;;
70975;SDS011;58635;51.198;6.010;2023-08-24T13:11:54;8.52;;;4.18;;
70975;SDS011;58635;51.198;6.010;2023-08-24T13:14:20;9.75;;;5.65;;
70975;SDS011;58635;51.198;6.010;2023-08-24T13:16:47;9.15;;;5.13;;
70975;SDS011;58635;51.198;6.010;2023-08-24T13:19:14;8.90;;;4.90;;
70975;SDS011;58635;51.198;6.010;2023-08-24T13:21:40;7.65;;;4.00;;
70975;SDS011;58635;51.198;6.010;2023-08-24T13:24:07;7.68;;;3.88;;
70975;SDS011;58635;51.198;6.010;2023-08-24T13:26:33;7.50;;;4.82;;
70975;SDS011;58635;51.198;6.010;2023-08-24T13:29:00;9.07;;;4.53;;
70975;SDS011;58635;51.198;6.010;2023-08-24T13:31:27;7.72;;;4.50;;
70975;SDS011;58635;51.198;6.010;2023-08-24T13:33:56;7.45;;;3.85;;
70975;SDS011;58635;51.198;6.010;2023-08-24T13:36:22;6.85;;;3.90;;
70975;SDS011;58635;51.198;6.010;2023-08-24T13:38:48;6.25;;;3.60;;
70975;SDS011;58635;51.198;6.010;2023-08-24T13:41:16;6.72;;;4.03;;
70975;SDS011;58635;51.198;6.010;2023-08-24T13:43:42;5.63;;;3.65;;
70975;SDS011;58635;51.198;6.010;2023-08-24T13:46:08;6.45;;;3.97;;
70975;SDS011;58635;51.198;6.010;2023-08-24T13:48:35;9.70;;;4.43;;
70975;SDS011;58635;51.198;6.010;2023-08-24T13:51:02;9.27;;;4.50;;
70975;SDS011;58635;51.198;6.010;2023-08-24T13:53:28;8.13;;;4.35;;
70975;SDS011;58635;51.198;6.010;2023-08-24T13:55:55;6.00;;;3.95;;
70975;SDS011;58635;51.198;6.010;2023-08-24T13:58:21;9.05;;;4.10;;
70975;SDS011;58635;51.198;6.010;2023-08-24T14:00:48;6.90;;;4.07;;
70975;SDS011;58635;51.198;6.010;2023-08-24T14:03:21;8.88;;;5.30;;
70975;SDS011;58635;51.198;6.010;2023-08-24T14:05:47;8.75;;;5.85;;
70975;SDS011;58635;51.198;6.010;2023-08-24T14:08:15;7.45;;;4.88;;
70975;SDS011;58635;51.198;6.010;2023-08-24T14:10:42;8.13;;;4.70;;
70975;SDS011;58635;51.198;6.010;2023-08-24T14:13:08;7.68;;;4.18;;
70975;SDS011;58635;51.198;6.010;2023-08-24T14:15:35;6.63;;;3.85;;
70975;SDS011;58635;51.198;6.010;2023-08-24T14:18:01;7.32;;;4.03;;
70975;SDS011;58635;51.198;6.010;2023-08-24T14:20:27;6.90;;;4.00;;
70975;SDS011;58635;51.198;6.010;2023-08-24T14:22:54;8.55;;;4.13;;
70975;SDS011;58635;51.198;6.010;2023-08-24T14:25:20;7.53;;;4.00;;
70975;SDS011;58635;51.198;6.010;2023-08-24T14:27:46;8.32;;;4.28;;
70975;SDS011;58635;51.198;6.010;2023-08-24T14:30:13;6.70;;;3.67;;
70975;SDS011;58635;51.198;6.010;2023-08-24T14:32:40;9.95;;;4.15;;
70975;SDS011;58635;51.198;6.010;2023-08-24T14:35:07;9.30;;;3.70;;
70975;SDS011;58635;51.198;6.010;2023-08-24T14:37:34;6.63;;;3.97;;
70975;SDS011;58635;51.198;6.010;2023-08-24T14:40:00;7.40;;;3.63;;
70975;SDS011;58635;51.198;6.010;2023-08-24T14:42:26;6.85;;;3.15;;
70975;SDS011;58635;51.198;6.010;2023-08-24T14:44:53;6.35;;;3.45;;
70975;SDS011;58635;51.198;6.010;2023-08-24T14:47:19;6.25;;;3.00;;
70975;SDS011;58635;51.198;6.010;2023-08-24T14:49:45;6.72;;;3.72;;
70975;SDS011;58635;51.198;6.010;2023-08-24T14:52:12;6.40;;;2.78;;
70975;SDS011;58635;51.198;6.010;2023-08-24T14:54:38;7.60;;;2.38;;
70975;SDS011;58635;51.198;6.010;2023-08-24T14:57:05;7.13;;;2.30;;
70975;SDS011;58635;51.198;6.010;2023-08-24T14:59:32;5.30;;;2.47;;
70975;SDS011;58635;51.198;6.010;2023-08-24T15:01:58;5.78;;;2.40;;
70975;SDS011;58635;51.198;6.010;2023-08-24T15:04:27;5.25;;;2.25;;
70975;SDS011;58635;51.198;6.010;2023-08-24T15:06:53;5.40;;;1.95;;